createdAt,value
2022-08-19T00:00:37.999Z,20.5255127
2022-08-19T00:01:38.502Z,20.5557251
2022-08-19T00:02:38.963Z,20.5557251
2022-08-19T00:03:39.347Z,20.5557251
2022-08-19T00:04:39.798Z,20.5657959
2022-08-19T00:05:40.236Z,20.5657959
2022-08-19T00:06:40.690Z,20.5758667
2022-08-19T00:07:41.120Z,20.5657959
2022-08-19T00:08:42.932Z,20.5657959
2022-08-19T00:09:43.055Z,20.5557251
2022-08-19T00:10:43.572Z,20.5557251
2022-08-19T00:11:44.030Z,20.5557251
2022-08-19T00:12:47.122Z,20.5355835
2022-08-19T00:13:45.290Z,20.5255127
2022-08-19T00:14:45.471Z,20.5355835
2022-08-19T00:15:46.002Z,20.5355835
2022-08-19T00:16:46.495Z,20.5255127
2022-08-19T00:17:47.011Z,20.50537109
2022-08-19T00:18:47.415Z,20.5255127
2022-08-19T00:19:48.604Z,20.5255127
2022-08-19T00:20:49.121Z,20.5355835
2022-08-19T00:22:20.563Z,20.5355835
2022-08-19T00:23:21.182Z,20.5557251
2022-08-19T00:24:21.689Z,20.5557251
2022-08-19T00:25:29.869Z,20.5960083
2022-08-19T00:26:22.747Z,20.5758667
2022-08-19T00:27:26.312Z,20.5960083
2022-08-19T00:28:23.765Z,20.6060791
2022-08-19T00:29:24.163Z,20.6362915
2022-08-19T00:30:25.350Z,20.5960083
2022-08-19T00:31:25.871Z,20.5758667
2022-08-19T00:32:26.379Z,20.5657959
2022-08-19T00:33:27.814Z,20.5355835
2022-08-19T00:34:28.201Z,20.5557251
2022-08-19T00:35:28.779Z,20.5355835
2022-08-19T00:36:29.469Z,20.5355835
2022-08-19T00:37:30.010Z,20.5355835
2022-08-19T00:38:36.789Z,20.5557251
2022-08-19T00:39:30.934Z,20.5355835
2022-08-19T00:40:32.356Z,20.5657959
2022-08-19T00:41:32.857Z,20.5657959
2022-08-19T00:42:33.355Z,20.5657959
2022-08-19T00:43:33.822Z,20.5758667
2022-08-19T00:44:34.773Z,20.5960083
2022-08-19T00:45:36.507Z,20.5960083
2022-08-19T00:46:35.730Z,20.6060791
2022-08-19T00:47:36.184Z,20.6060791
2022-08-19T00:48:36.676Z,20.6060791
2022-08-19T00:49:37.067Z,20.6060791
2022-08-19T00:50:38.395Z,20.6060791
2022-08-19T00:51:38.862Z,20.5960083
2022-08-19T00:52:39.324Z,20.5758667
2022-08-19T00:53:39.797Z,20.5960083
2022-08-19T00:54:40.189Z,20.6262207
2022-08-19T00:55:40.688Z,20.5960083
2022-08-19T00:56:41.678Z,20.6262207
2022-08-19T00:57:42.272Z,20.5758667
2022-08-19T00:58:42.719Z,20.5960083
2022-08-19T00:59:58.798Z,20.5758667
2022-08-19T01:00:44.350Z,20.6262207
2022-08-19T01:01:44.890Z,20.6262207
2022-08-19T01:02:45.251Z,20.6262207
2022-08-19T01:03:57.985Z,20.6060791
2022-08-19T01:04:46.771Z,20.6060791
2022-08-19T01:05:47.304Z,20.5960083
2022-08-19T01:06:47.748Z,20.5960083
2022-08-19T01:07:48.223Z,20.5960083
2022-08-19T01:08:50.307Z,20.5758667
2022-08-19T01:10:20.560Z,20.5758667
2022-08-19T01:11:21.064Z,20.5657959
2022-08-19T01:12:21.508Z,20.5657959
2022-08-19T01:13:21.975Z,20.5355835
2022-08-19T01:14:22.424Z,20.49530029
2022-08-19T01:15:22.817Z,20.49530029
2022-08-19T01:16:23.295Z,20.47515869
2022-08-19T01:17:23.745Z,20.47515869
2022-08-19T01:18:24.234Z,20.47515869
2022-08-19T01:19:25.589Z,20.45501709
2022-08-19T01:20:26.567Z,20.45501709
2022-08-19T01:21:27.194Z,20.45501709
2022-08-19T01:22:33.320Z,20.44494629
2022-08-19T01:23:28.902Z,20.42480469
2022-08-19T01:24:29.359Z,20.44494629
2022-08-19T01:25:29.734Z,20.44494629
2022-08-19T01:26:31.369Z,20.44494629
2022-08-19T01:27:35.400Z,20.45501709
2022-08-19T01:28:34.196Z,20.44494629
2022-08-19T01:29:31.880Z,20.44494629
2022-08-19T01:30:32.862Z,20.44494629
2022-08-19T01:31:33.542Z,20.42480469
2022-08-19T01:32:34.258Z,20.42480469
2022-08-19T01:33:34.334Z,20.41473389
2022-08-19T01:34:34.802Z,20.40466309
2022-08-19T01:35:35.208Z,20.41473389
2022-08-19T01:36:35.687Z,20.41473389
2022-08-19T01:37:36.218Z,20.40466309
2022-08-19T01:38:36.745Z,20.38452148
2022-08-19T01:39:37.267Z,20.38452148
2022-08-19T01:40:38.272Z,20.38452148
2022-08-19T01:41:38.795Z,20.40466309
2022-08-19T01:42:39.309Z,20.40466309
2022-08-19T01:44:13.447Z,20.38452148
2022-08-19T01:44:40.378Z,20.38452148
2022-08-19T01:45:40.933Z,20.40466309
2022-08-19T01:46:41.564Z,20.41473389
2022-08-19T01:47:42.896Z,20.41473389
2022-08-19T01:48:43.395Z,20.42480469
2022-08-19T01:49:43.915Z,20.40466309
2022-08-19T01:50:45.257Z,20.41473389
2022-08-19T01:51:45.672Z,20.41473389
2022-08-19T01:52:46.914Z,20.40466309
2022-08-19T01:53:47.187Z,20.42480469
2022-08-19T01:54:47.628Z,20.41473389
2022-08-19T01:55:48.484Z,20.40466309
2022-08-19T01:57:19.126Z,20.41473389
2022-08-19T01:58:19.545Z,20.40466309
2022-08-19T01:59:19.987Z,20.38452148
2022-08-19T02:00:21.105Z,20.38452148
2022-08-19T02:01:21.584Z,20.37445068
2022-08-19T02:02:21.899Z,20.37445068
2022-08-19T02:03:22.285Z,20.35430908
2022-08-19T02:04:22.682Z,20.35430908
2022-08-19T02:05:23.145Z,20.37445068
2022-08-19T02:06:26.905Z,20.37445068
2022-08-19T02:07:23.938Z,20.38452148
2022-08-19T02:08:24.339Z,20.38452148
2022-08-19T02:09:24.745Z,20.37445068
2022-08-19T02:10:26.096Z,20.37445068
2022-08-19T02:11:26.529Z,20.37445068
2022-08-19T02:12:26.940Z,20.38452148
2022-08-19T02:13:27.348Z,20.38452148
2022-08-19T02:14:27.771Z,20.40466309
2022-08-19T02:15:29.103Z,20.41473389
2022-08-19T02:16:29.531Z,20.44494629
2022-08-19T02:17:29.936Z,20.42480469
2022-08-19T02:18:30.370Z,20.44494629
2022-08-19T02:19:30.797Z,20.45501709
2022-08-19T02:20:32.094Z,20.44494629
2022-08-19T02:21:32.570Z,20.47515869
2022-08-19T02:22:33.001Z,20.45501709
2022-08-19T02:23:33.447Z,20.45501709
2022-08-19T02:24:33.862Z,20.42480469
2022-08-19T02:25:34.317Z,20.41473389
2022-08-19T02:26:34.704Z,20.41473389
2022-08-19T02:27:35.779Z,20.38452148
2022-08-19T02:28:36.186Z,20.40466309
2022-08-19T02:29:36.576Z,20.37445068
2022-08-19T02:30:37.609Z,20.37445068
2022-08-19T02:31:37.966Z,20.34423828
2022-08-19T02:32:44.473Z,20.34423828
2022-08-19T02:33:38.817Z,20.33416748
2022-08-19T02:34:39.234Z,20.34423828
2022-08-19T02:35:39.686Z,20.33416748
2022-08-19T02:36:42.413Z,20.31402588
2022-08-19T02:37:41.263Z,20.31402588
2022-08-19T02:38:41.781Z,20.30395508
2022-08-19T02:39:42.223Z,20.27374268
2022-08-19T02:40:42.633Z,20.27374268
2022-08-19T02:41:43.777Z,20.27374268
2022-08-19T02:42:44.203Z,20.27374268
2022-08-19T02:43:59.445Z,20.26367188
2022-08-19T02:44:45.074Z,20.27374268
2022-08-19T02:45:45.512Z,20.27374268
2022-08-19T02:46:46.012Z,20.26367188
2022-08-19T02:47:46.355Z,20.25360107
2022-08-19T02:48:46.755Z,20.25360107
2022-08-19T02:49:47.154Z,20.25360107
2022-08-19T02:51:18.810Z,20.25360107
2022-08-19T02:52:19.173Z,20.22338867
2022-08-19T02:53:19.580Z,20.22338867
2022-08-19T02:54:19.980Z,20.25360107
2022-08-19T02:55:20.412Z,20.26367188
2022-08-19T02:56:20.851Z,20.26367188
2022-08-19T02:57:22.083Z,20.30395508
2022-08-19T02:58:22.530Z,20.30395508
2022-08-19T02:59:23.140Z,20.27374268
2022-08-19T03:00:23.345Z,20.23345947
2022-08-19T03:01:24.412Z,20.13275146
2022-08-19T03:02:24.719Z,20.04211426
2022-08-19T03:03:25.199Z,19.95147705
2022-08-19T03:04:25.611Z,19.92126465
2022-08-19T03:05:48.170Z,19.92126465
2022-08-19T03:06:26.468Z,19.92126465
2022-08-19T03:07:26.848Z,19.94140625
2022-08-19T03:08:27.263Z,19.95147705
2022-08-19T03:09:27.719Z,20.01190186
2022-08-19T03:10:28.120Z,20.04211426
2022-08-19T03:11:29.287Z,20.05218506
2022-08-19T03:12:29.711Z,20.08239746
2022-08-19T03:13:30.124Z,20.12268066
2022-08-19T03:14:30.522Z,20.12268066
2022-08-19T03:15:30.974Z,20.12268066
2022-08-19T03:16:33.230Z,20.12268066
2022-08-19T03:17:31.803Z,20.13275146
2022-08-19T03:18:32.209Z,20.15289307
2022-08-19T03:19:32.616Z,20.17303467
2022-08-19T03:20:33.617Z,20.17303467
2022-08-19T03:21:34.088Z,20.17303467
2022-08-19T03:22:35.275Z,20.23345947
2022-08-19T03:23:35.689Z,20.22338867
2022-08-19T03:24:36.087Z,20.20324707
2022-08-19T03:25:36.505Z,20.22338867
2022-08-19T03:26:36.990Z,20.20324707
2022-08-19T03:27:37.397Z,20.20324707
2022-08-19T03:28:37.832Z,20.22338867
2022-08-19T03:29:43.974Z,20.20324707
2022-08-19T03:30:38.647Z,20.20324707
2022-08-19T03:31:45.709Z,20.22338867
2022-08-19T03:32:45.263Z,20.22338867
2022-08-19T03:33:40.609Z,20.20324707
2022-08-19T03:34:41.006Z,20.19317627
2022-08-19T03:35:41.706Z,20.19317627
2022-08-19T03:36:42.148Z,20.17303467
2022-08-19T03:37:42.515Z,20.19317627
2022-08-19T03:38:42.923Z,20.19317627
2022-08-19T03:39:43.443Z,20.19317627
2022-08-19T03:40:43.779Z,20.17303467
2022-08-19T03:41:46.299Z,20.17303467
2022-08-19T03:42:48.855Z,20.17303467
2022-08-19T03:43:45.586Z,20.22338867
2022-08-19T03:44:46.033Z,20.23345947
2022-08-19T03:45:46.418Z,20.25360107
2022-08-19T03:47:17.560Z,20.26367188
2022-08-19T03:48:17.839Z,20.26367188
2022-08-19T03:49:18.708Z,20.26367188
2022-08-19T03:50:19.590Z,20.27374268
2022-08-19T03:51:20.590Z,20.25360107
2022-08-19T03:52:21.005Z,20.23345947
2022-08-19T03:53:21.386Z,20.25360107
2022-08-19T03:54:21.779Z,20.26367188
2022-08-19T03:55:22.195Z,20.25360107
2022-08-19T03:56:23.476Z,20.23345947
2022-08-19T03:57:31.657Z,20.26367188
2022-08-19T03:58:24.146Z,20.25360107
2022-08-19T03:59:24.594Z,20.22338867
2022-08-19T04:00:25.003Z,20.20324707
2022-08-19T04:01:35.181Z,20.17303467
2022-08-19T04:02:26.534Z,20.17303467
2022-08-19T04:03:26.742Z,20.10253906
2022-08-19T04:04:29.027Z,20.02197266
2022-08-19T04:05:27.612Z,19.98168945
2022-08-19T04:06:28.011Z,19.97161865
2022-08-19T04:07:28.453Z,19.94140625
2022-08-19T04:08:28.854Z,19.86083984
2022-08-19T04:09:29.260Z,19.86083984
2022-08-19T04:10:29.666Z,19.87091064
2022-08-19T04:11:42.761Z,19.87091064
2022-08-19T04:12:30.466Z,19.92126465
2022-08-19T04:13:30.873Z,19.90112305
2022-08-19T04:14:31.602Z,19.89105225
2022-08-19T04:15:31.754Z,19.87091064
2022-08-19T04:16:35.316Z,19.83062744
2022-08-19T04:17:33.457Z,19.80041504
2022-08-19T04:18:36.357Z,19.76013184
2022-08-19T04:19:34.140Z,19.71984863
2022-08-19T04:20:34.546Z,19.69970703
2022-08-19T04:21:34.963Z,19.61914063
2022-08-19T04:22:35.440Z,19.63928223
2022-08-19T04:23:35.818Z,19.67956543
2022-08-19T04:24:36.248Z,19.70977783
2022-08-19T04:25:36.637Z,19.70977783
2022-08-19T04:26:37.069Z,19.70977783
2022-08-19T04:27:37.526Z,19.71984863
2022-08-19T04:28:37.911Z,19.71984863
2022-08-19T04:29:38.354Z,19.67956543
2022-08-19T04:30:38.749Z,19.61914063
2022-08-19T04:31:39.793Z,19.56878662
2022-08-19T04:32:40.235Z,19.52850342
2022-08-19T04:33:40.611Z,19.52850342
2022-08-19T04:35:02.040Z,19.54864502
2022-08-19T04:35:42.599Z,19.57885742
2022-08-19T04:36:43.024Z,19.56878662
2022-08-19T04:37:43.471Z,19.54864502
2022-08-19T04:38:43.862Z,19.59899902
2022-08-19T04:39:44.351Z,19.63928223
2022-08-19T04:40:44.721Z,19.64935303
2022-08-19T04:41:45.797Z,19.66949463
2022-08-19T04:43:16.794Z,19.66949463
2022-08-19T04:44:17.178Z,19.66949463
2022-08-19T04:45:17.661Z,19.66949463
2022-08-19T04:46:39.314Z,19.70977783
2022-08-19T04:47:18.445Z,19.71984863
2022-08-19T04:48:19.786Z,19.71984863
2022-08-19T04:49:19.253Z,19.79034424
2022-08-19T04:50:19.662Z,19.78027344
2022-08-19T04:51:20.062Z,19.76013184
2022-08-19T04:52:20.468Z,19.78027344
2022-08-19T04:53:20.928Z,19.78027344
2022-08-19T04:54:36.987Z,19.80041504
2022-08-19T04:55:21.682Z,19.82055664
2022-08-19T04:56:22.140Z,19.82055664
2022-08-19T04:57:22.543Z,19.85076904
2022-08-19T04:58:22.976Z,19.86083984
2022-08-19T04:59:23.357Z,19.86083984
2022-08-19T05:00:23.763Z,19.89105225
2022-08-19T05:01:25.157Z,19.86083984
2022-08-19T05:02:25.522Z,19.86083984
2022-08-19T05:03:30.046Z,19.87091064
2022-08-19T05:04:26.344Z,19.87091064
2022-08-19T05:05:26.757Z,19.86083984
2022-08-19T05:06:27.247Z,19.85076904
2022-08-19T05:07:27.636Z,19.83062744
2022-08-19T05:08:31.253Z,19.85076904
2022-08-19T05:09:28.440Z,19.83062744
2022-08-19T05:10:29.616Z,19.83062744
2022-08-19T05:11:30.603Z,19.85076904
2022-08-19T05:12:31.007Z,19.87091064
2022-08-19T05:13:31.621Z,19.89105225
2022-08-19T05:14:32.120Z,19.94140625
2022-08-19T05:15:32.612Z,19.94140625
2022-08-19T05:16:33.018Z,19.98168945
2022-08-19T05:17:37.789Z,20.01190186
2022-08-19T05:18:33.948Z,19.98168945
2022-08-19T05:19:34.383Z,20.01190186
2022-08-19T05:20:34.861Z,19.98168945
2022-08-19T05:21:36.103Z,19.98168945
2022-08-19T05:22:36.555Z,20.01190186
2022-08-19T05:23:37.025Z,20.05218506
2022-08-19T05:24:51.220Z,20.04211426
2022-08-19T05:25:38.012Z,20.04211426
2022-08-19T05:26:38.487Z,20.05218506
2022-08-19T05:27:38.898Z,20.04211426
2022-08-19T05:28:39.445Z,20.05218506
2022-08-19T05:29:39.917Z,20.07232666
2022-08-19T05:30:47.325Z,20.08239746
2022-08-19T05:31:41.900Z,20.10253906
2022-08-19T05:32:42.020Z,20.08239746
2022-08-19T05:33:42.625Z,20.04211426
2022-08-19T05:34:43.078Z,20.02197266
2022-08-19T05:35:44.157Z,20.04211426
2022-08-19T05:36:44.646Z,20.02197266
2022-08-19T05:37:45.067Z,20.05218506
2022-08-19T05:39:16.159Z,20.05218506
2022-08-19T05:40:16.760Z,20.05218506
2022-08-19T05:41:17.246Z,20.05218506
2022-08-19T05:42:18.312Z,20.07232666
2022-08-19T05:43:18.732Z,20.07232666
2022-08-19T05:44:19.314Z,20.10253906
2022-08-19T05:45:19.728Z,20.08239746
2022-08-19T05:46:27.642Z,20.10253906
2022-08-19T05:47:20.940Z,20.12268066
2022-08-19T05:48:21.091Z,20.12268066
2022-08-19T05:49:21.615Z,20.13275146
2022-08-19T05:50:22.654Z,20.15289307
2022-08-19T05:51:27.260Z,20.10253906
2022-08-19T05:52:25.717Z,20.05218506
2022-08-19T05:53:24.733Z,20.05218506
2022-08-19T05:54:25.203Z,20.07232666
2022-08-19T05:55:25.672Z,20.04211426
2022-08-19T05:56:26.894Z,20.02197266
2022-08-19T05:57:27.316Z,20.02197266
2022-08-19T05:58:28.086Z,20.01190186
2022-08-19T05:59:28.237Z,20.01190186
2022-08-19T06:00:28.730Z,19.98168945
2022-08-19T06:01:29.203Z,20.00183105
2022-08-19T06:02:30.402Z,20.01190186
2022-08-19T06:03:30.787Z,19.97161865
2022-08-19T06:04:31.222Z,19.95147705
2022-08-19T06:05:31.738Z,19.94140625
2022-08-19T06:06:32.224Z,19.92126465
2022-08-19T06:07:32.771Z,19.92126465
2022-08-19T06:08:33.844Z,19.92126465
2022-08-19T06:09:33.539Z,19.92126465
2022-08-19T06:10:33.980Z,19.92126465
2022-08-19T06:11:34.455Z,19.95147705
2022-08-19T06:12:35.883Z,19.95147705
2022-08-19T06:13:36.297Z,19.98168945
2022-08-19T06:14:40.245Z,19.98168945
2022-08-19T06:15:37.200Z,19.98168945
2022-08-19T06:16:37.734Z,20.01190186
2022-08-19T06:17:38.201Z,20.02197266
2022-08-19T06:18:38.602Z,19.98168945
2022-08-19T06:19:40.893Z,19.89105225
2022-08-19T06:20:55.004Z,19.90112305
2022-08-19T06:21:40.644Z,19.92126465
2022-08-19T06:22:41.917Z,19.90112305
2022-08-19T06:23:42.349Z,19.90112305
2022-08-19T06:24:42.795Z,19.94140625
2022-08-19T06:25:43.905Z,19.94140625
2022-08-19T06:28:11.592Z,20.00183105
2022-08-19T06:29:23.758Z,20.00183105
2022-08-19T06:30:16.433Z,20.01190186
2022-08-19T06:31:16.921Z,20.02197266
2022-08-19T06:32:18.155Z,19.98168945
2022-08-19T06:33:18.713Z,19.97161865
2022-08-19T06:34:19.746Z,19.94140625
2022-08-19T06:35:19.462Z,19.92126465
2022-08-19T06:36:19.996Z,19.90112305
2022-08-19T06:37:20.533Z,19.80041504
2022-08-19T06:38:20.980Z,19.75006104
2022-08-19T06:39:21.406Z,19.75006104
2022-08-19T06:40:21.899Z,19.67956543
2022-08-19T06:41:22.295Z,19.64935303
2022-08-19T06:42:29.740Z,19.66949463
2022-08-19T06:43:30.180Z,19.63928223
2022-08-19T06:44:30.614Z,19.61914063
2022-08-19T06:45:35.734Z,19.63928223
2022-08-19T06:46:33.585Z,19.66949463
2022-08-19T06:47:32.946Z,19.69970703
2022-08-19T06:48:35.568Z,19.70977783
2022-08-19T06:49:34.179Z,19.64935303
2022-08-19T06:50:35.169Z,19.52850342
2022-08-19T06:51:35.675Z,19.49829102
2022-08-19T06:52:38.359Z,19.44793701
2022-08-19T06:53:37.444Z,19.44793701
2022-08-19T06:54:56.590Z,19.45800781
2022-08-19T06:55:38.866Z,19.42779541
2022-08-19T06:56:39.338Z,19.41772461
2022-08-19T06:57:39.841Z,19.347229
2022-08-19T06:58:40.347Z,19.22637939
2022-08-19T06:59:40.790Z,19.20623779
2022-08-19T07:00:41.238Z,19.20623779
2022-08-19T07:01:41.824Z,19.2364502
2022-08-19T07:02:48.055Z,19.2666626
2022-08-19T07:03:43.458Z,19.2767334
2022-08-19T07:04:43.887Z,19.347229
2022-08-19T07:05:45.447Z,19.38751221
2022-08-19T07:07:19.729Z,19.39758301
2022-08-19T07:08:15.803Z,19.39758301
2022-08-19T07:09:18.411Z,19.38751221
2022-08-19T07:10:16.779Z,19.37744141
2022-08-19T07:11:17.240Z,19.3371582
2022-08-19T07:12:18.255Z,19.3170166
2022-08-19T07:13:18.792Z,19.3069458
2022-08-19T07:14:19.909Z,19.3170166
2022-08-19T07:15:19.694Z,19.3069458
2022-08-19T07:16:20.136Z,19.3069458
2022-08-19T07:17:20.593Z,19.37744141
2022-08-19T07:18:21.125Z,19.39758301
2022-08-19T07:19:21.618Z,19.3371582
2022-08-19T07:20:22.636Z,19.296875
2022-08-19T07:21:23.084Z,19.2666626
2022-08-19T07:22:24.635Z,19.20623779
2022-08-19T07:23:24.773Z,19.15588379
2022-08-19T07:24:25.245Z,19.09545898
2022-08-19T07:25:32.364Z,19.06524658
2022-08-19T07:26:28.283Z,19.08538818
2022-08-19T07:27:28.124Z,19.06524658
2022-08-19T07:28:28.598Z,18.96453857
2022-08-19T07:29:29.103Z,18.90411377
2022-08-19T07:30:29.531Z,18.87390137
2022-08-19T07:31:31.083Z,18.86383057
2022-08-19T07:32:31.223Z,18.83361816
2022-08-19T07:33:31.794Z,18.86383057
2022-08-19T07:34:32.336Z,18.86383057
2022-08-19T07:35:32.756Z,18.87390137
2022-08-19T07:36:33.222Z,18.93432617
2022-08-19T07:37:33.670Z,18.99475098
2022-08-19T07:38:34.243Z,19.05517578
2022-08-19T07:39:34.810Z,19.08538818
2022-08-19T07:40:35.263Z,19.12567139
2022-08-19T07:41:35.722Z,19.14581299
2022-08-19T07:42:36.638Z,19.12567139
2022-08-19T07:43:37.237Z,19.15588379
2022-08-19T07:45:38.286Z,19.22637939
2022-08-19T07:46:38.724Z,19.2666626
2022-08-19T07:47:47.989Z,19.2364502
2022-08-19T07:48:39.713Z,19.2364502
2022-08-19T07:49:40.253Z,19.246521
2022-08-19T07:50:41.638Z,19.246521
2022-08-19T07:51:42.061Z,19.2666626
2022-08-19T07:52:43.198Z,19.246521
2022-08-19T07:53:43.777Z,19.22637939
2022-08-19T07:55:41.708Z,19.16595459
2022-08-19T07:56:15.869Z,19.15588379
2022-08-19T07:57:16.381Z,19.12567139
2022-08-19T07:58:16.758Z,19.15588379
2022-08-19T07:59:17.302Z,19.16595459
2022-08-19T08:00:21.689Z,19.14581299
2022-08-19T08:01:18.291Z,19.14581299
2022-08-19T08:02:19.647Z,19.16595459
2022-08-19T08:03:20.063Z,19.2364502
2022-08-19T08:04:21.208Z,19.2666626
2022-08-19T08:05:21.809Z,19.2767334
2022-08-19T08:06:22.276Z,19.2666626
2022-08-19T08:07:22.757Z,19.296875
2022-08-19T08:08:23.242Z,19.3069458
2022-08-19T08:09:23.779Z,19.3170166
2022-08-19T08:10:24.656Z,19.3069458
2022-08-19T08:11:25.454Z,19.3069458
2022-08-19T08:12:34.572Z,19.2767334
2022-08-19T08:13:27.171Z,19.2767334
2022-08-19T08:14:29.365Z,19.3069458
2022-08-19T08:15:28.205Z,19.296875
2022-08-19T08:16:28.736Z,19.3069458
2022-08-19T08:17:40.689Z,19.347229
2022-08-19T08:18:30.426Z,19.3371582
2022-08-19T08:19:30.231Z,19.3371582
2022-08-19T08:20:31.683Z,19.3371582
2022-08-19T08:21:32.150Z,19.3069458
2022-08-19T08:22:33.193Z,19.3170166
2022-08-19T08:23:33.593Z,19.347229
2022-08-19T08:24:34.157Z,19.3371582
2022-08-19T08:25:35.353Z,19.347229
2022-08-19T08:26:35.851Z,19.37744141
2022-08-19T08:27:36.314Z,19.3371582
2022-08-19T08:28:36.698Z,19.347229
2022-08-19T08:29:37.235Z,19.347229
2022-08-19T08:30:37.711Z,19.3371582
2022-08-19T08:31:38.242Z,19.3371582
2022-08-19T08:32:39.671Z,19.347229
2022-08-19T08:33:40.046Z,19.39758301
2022-08-19T08:34:40.569Z,19.44793701
2022-08-19T08:35:41.099Z,19.49829102
2022-08-19T08:36:41.790Z,19.56878662
2022-08-19T08:37:42.247Z,19.57885742
2022-08-19T08:38:42.706Z,19.60906982
2022-08-19T08:39:43.294Z,19.69970703
2022-08-19T08:41:14.235Z,19.70977783
2022-08-19T08:42:17.873Z,19.71984863
2022-08-19T08:43:15.898Z,19.71984863
2022-08-19T08:44:17.320Z,19.70977783
2022-08-19T08:45:17.007Z,19.71984863
2022-08-19T08:46:31.645Z,19.75006104
2022-08-19T08:47:17.801Z,19.79034424
2022-08-19T08:48:22.053Z,19.80041504
2022-08-19T08:49:19.561Z,19.79034424
2022-08-19T08:50:20.503Z,19.79034424
2022-08-19T08:51:20.706Z,19.80041504
2022-08-19T08:52:21.860Z,19.79034424
2022-08-19T08:53:29.756Z,19.80041504
2022-08-19T08:54:23.358Z,19.82055664
2022-08-19T08:55:23.831Z,19.83062744
2022-08-19T08:56:24.972Z,19.85076904
2022-08-19T08:57:25.429Z,19.87091064
2022-08-19T08:58:26.105Z,19.87091064
2022-08-19T08:59:26.567Z,19.89105225
2022-08-19T09:00:27.106Z,19.92126465
2022-08-19T09:01:30.393Z,19.89105225
2022-08-19T09:02:28.036Z,19.87091064
2022-08-19T09:03:31.607Z,19.89105225
2022-08-19T09:04:29.874Z,19.89105225
2022-08-19T09:05:39.534Z,19.89105225
2022-08-19T09:06:31.433Z,19.90112305
2022-08-19T09:07:34.826Z,19.94140625
2022-08-19T09:08:32.392Z,19.94140625
2022-08-19T09:09:32.862Z,19.97161865
2022-08-19T09:10:33.306Z,20.00183105
2022-08-19T09:11:42.086Z,20.01190186
2022-08-19T09:12:34.157Z,20.04211426
2022-08-19T09:13:37.558Z,20.05218506
2022-08-19T09:14:50.163Z,20.08239746
2022-08-19T09:15:36.875Z,20.10253906
2022-08-19T09:16:36.835Z,20.15289307
2022-08-19T09:17:37.856Z,20.17303467
2022-08-19T09:18:38.315Z,20.20324707
2022-08-19T09:19:38.755Z,20.22338867
2022-08-19T09:20:41.310Z,20.27374268
2022-08-19T09:21:39.654Z,20.31402588
2022-08-19T09:22:40.095Z,20.33416748
2022-08-19T09:23:41.679Z,20.33416748
2022-08-19T09:24:42.122Z,20.33416748
2022-08-19T09:25:42.623Z,20.34423828
2022-08-19T09:27:18.760Z,20.33416748
2022-08-19T09:28:22.364Z,20.33416748
2022-08-19T09:29:14.411Z,20.31402588
2022-08-19T09:30:14.882Z,20.33416748
2022-08-19T09:31:15.344Z,20.30395508
2022-08-19T09:32:26.155Z,20.30395508
2022-08-19T09:33:17.213Z,20.34423828
2022-08-19T09:34:21.341Z,20.34423828
2022-08-19T09:35:18.044Z,20.34423828
2022-08-19T09:36:21.820Z,20.35430908
2022-08-19T09:37:18.945Z,20.35430908
2022-08-19T09:38:19.375Z,20.37445068
2022-08-19T09:39:19.835Z,20.38452148
2022-08-19T09:40:20.315Z,20.37445068
2022-08-19T09:41:20.743Z,20.35430908
2022-08-19T09:42:30.586Z,20.40466309
2022-08-19T09:43:33.793Z,20.41473389
2022-08-19T09:44:22.622Z,20.45501709
2022-08-19T09:45:23.221Z,20.49530029
2022-08-19T09:46:23.899Z,20.5255127
2022-08-19T09:47:23.955Z,20.5557251
2022-08-19T09:48:24.354Z,20.5960083
2022-08-19T09:49:24.856Z,20.6262207
2022-08-19T09:50:25.284Z,20.65643311
2022-08-19T09:51:25.852Z,20.67657471
2022-08-19T09:52:26.113Z,20.68664551
2022-08-19T09:53:27.155Z,20.71685791
2022-08-19T09:54:27.665Z,20.72692871
2022-08-19T09:55:31.048Z,20.75714111
2022-08-19T09:56:28.583Z,20.78735352
2022-08-19T09:57:29.025Z,20.82763672
2022-08-19T09:58:29.448Z,20.82763672
2022-08-19T09:59:29.935Z,20.84777832
2022-08-19T10:00:30.347Z,20.87799072
2022-08-19T10:01:30.876Z,20.90820313
2022-08-19T10:02:31.380Z,20.95855713
2022-08-19T10:03:32.656Z,20.99884033
2022-08-19T10:04:33.193Z,20.96862793
2022-08-19T10:05:33.615Z,20.97869873
2022-08-19T10:06:46.120Z,20.97869873
2022-08-19T10:07:36.571Z,20.96862793
2022-08-19T10:08:35.752Z,20.97869873
2022-08-19T10:09:36.252Z,21.00891113
2022-08-19T10:10:36.675Z,21.04919434
2022-08-19T10:11:39.703Z,21.04919434
2022-08-19T10:12:37.548Z,21.08947754
2022-08-19T10:13:38.658Z,21.12976074
2022-08-19T10:14:39.280Z,21.18011475
2022-08-19T10:15:47.245Z,21.22039795
2022-08-19T10:16:39.996Z,21.26068115
2022-08-19T10:17:40.393Z,21.26068115
2022-08-19T10:18:40.834Z,21.27075195
2022-08-19T10:19:41.558Z,21.28082275
2022-08-19T10:20:42.670Z,21.34124756
2022-08-19T10:22:13.306Z,21.34124756
2022-08-19T10:23:13.709Z,21.36138916
2022-08-19T10:24:14.865Z,21.37145996
2022-08-19T10:25:15.354Z,21.40167236
2022-08-19T10:26:16.673Z,21.43188477
2022-08-19T10:27:17.096Z,21.45202637
2022-08-19T10:28:19.147Z,21.49230957
2022-08-19T10:29:32.448Z,21.49230957
2022-08-19T10:30:18.409Z,21.53259277
2022-08-19T10:31:19.524Z,21.56280518
2022-08-19T10:32:20.206Z,21.59301758
2022-08-19T10:33:38.620Z,21.63330078
2022-08-19T10:34:27.539Z,21.68365479
2022-08-19T10:35:22.445Z,21.71386719
2022-08-19T10:36:22.562Z,21.74407959
2022-08-19T10:37:23.983Z,21.79443359
2022-08-19T10:38:31.805Z,21.8145752
2022-08-19T10:39:23.849Z,21.77429199
2022-08-19T10:40:24.384Z,21.77429199
2022-08-19T10:41:24.770Z,21.77429199
2022-08-19T10:42:25.197Z,21.77429199
2022-08-19T10:43:26.161Z,21.75415039
2022-08-19T10:44:32.368Z,21.77429199
2022-08-19T10:45:28.254Z,21.73400879
2022-08-19T10:46:27.474Z,21.74407959
2022-08-19T10:47:31.640Z,21.73400879
2022-08-19T10:48:28.358Z,21.71386719
2022-08-19T10:49:28.785Z,21.71386719
2022-08-19T10:50:30.169Z,21.73400879
2022-08-19T10:51:29.657Z,21.71386719
2022-08-19T10:52:32.498Z,21.74407959
2022-08-19T10:53:31.166Z,21.73400879
2022-08-19T10:54:33.438Z,21.71386719
2022-08-19T10:55:32.038Z,21.71386719
2022-08-19T10:56:33.389Z,21.71386719
2022-08-19T10:57:52.401Z,21.73400879
2022-08-19T10:58:34.150Z,21.73400879
2022-08-19T10:59:36.222Z,21.74407959
2022-08-19T11:00:35.174Z,21.79443359
2022-08-19T11:01:35.569Z,21.79443359
2022-08-19T11:02:36.019Z,21.75415039
2022-08-19T11:03:37.166Z,21.75415039
2022-08-19T11:04:37.576Z,21.74407959
2022-08-19T11:05:40.019Z,21.75415039
2022-08-19T11:06:38.457Z,21.77429199